This is the latest recevied weather packets stored in our database for station/object KF6ILA. If no packets are shown the sender has not sent any weather packets the latest 10 day(s).
| Time | Temp. | Humidity | Pressure | Rain* | Wind** | Luminosity | Snow |
|---|---|---|---|---|---|---|---|
| 1788024962 | 22.78° C | 53% | 1016.5 hPa | 0 mm | - | 0 W/m² | - |
| 1788024962 | 22.78° C | 53% | 1016.4 hPa | 0 mm | - | 0 W/m² | - |
| 1788024437 | 28.33° C | 39% | 1018.2 hPa | 0 mm | - | 786 W/m² | - |
| 1788024140 | 28.33° C | 39% | 1018.4 hPa | 0 mm | - | 773 W/m² | - |
| 1788023843 | 28.33° C | 39% | 1018.3 hPa | 0 mm | - | 759 W/m² | - |
| 1788023546 | 28.33° C | 39% | 1018.2 hPa | 0 mm | - | 747 W/m² | - |
| 1788023249 | 28.33° C | 39% | 1018.3 hPa | 0 mm | - | 735 W/m² | - |
| 1788022952 | 27.78° C | 39% | 1018.1 hPa | 0 mm | - | 724 W/m² | - |
| 1788022655 | 27.78° C | 39% | 1018 hPa | 0 mm | - | 712 W/m² | - |
| 1788022061 | 27.78° C | 38% | 1018 hPa | 0 mm | - | 680 W/m² | - |
| 1788021764 | 27.78° C | 38% | 1017.9 hPa | 0 mm | - | 668 W/m² | - |
| 1788021467 | 27.22° C | 38% | 1018 hPa | 0 mm | - | 649 W/m² | - |
| 1788021170 | 27.22° C | 38% | 1018 hPa | 0 mm | - | 638 W/m² | - |
| 1788020873 | 27.22° C | 38% | 1018 hPa | 0 mm | - | 621 W/m² | - |
| 1788020576 | 27.22° C | - | - | 0 mm | - | - | - |
| 1788020279 | 26.67° C | 40% | 1017.7 hPa | 0 mm | - | 587 W/m² | - |
| 1788019685 | 26.67° C | 40% | 1017.7 hPa | 0 mm | - | 559 W/m² | - |
| 1788019388 | 26.67° C | 41% | 1017.5 hPa | 0 mm | - | 541 W/m² | - |
| 1788019091 | 26.67° C | 41% | 1017.6 hPa | 0 mm | - | 524 W/m² | - |
| 1788018794 | 26.11° C | 42% | 1017.8 hPa | 0 mm | - | 504 W/m² | - |
| 1788018497 | 26.11° C | 42% | 1017.8 hPa | 0 mm | - | 489 W/m² | - |
| 1788018200 | 26.11° C | 42% | 1017.7 hPa | 0 mm | - | 471 W/m² | - |
| 1788017606 | 26.11° C | 43% | 1017.6 hPa | 0 mm | - | 436 W/m² | - |
| 1788017012 | 25.56° C | 45% | 1017.6 hPa | 0 mm | - | 399 W/m² | - |
| 1788016715 | 25° C | 46% | 1017.6 hPa | 0 mm | - | 383 W/m² | - |
* Rain latest hour (hover to see other rain measurements)
** Current wind speed in m/s (hover to see current wind gust speed)